Terminal Aerodrome Forecast
Issued by NWS Norman, OK

Home | Current Version | Previous Version | Text Only | Print | Product List | Glossary On
Versions: 1 2 3 4 5 6 7 8 9 10 11 12 13 14 15 16 17 18 19 20 21 22 23 24 25 26 27 28
050
FTUS44 KOUN 222341
TAFSPS
TAF
KSPS 222341Z 2300/2324 13005KT P6SM FEW040 OVC060
     FM231200 30012KT P6SM BKN035
     FM231400 35016G23KT P6SM BKN035=

USA.gov is the U.S. government's official web portal to all federal, state and local government web resources and services.